Time;durP1;ratioP1;P1;durP2;ratioP2;P2;SDS_P1;SDS_P2;PMS_P1;PMS_P2;Temp;Humidity;BMP_temperature;BMP_pressure;BME280_temperature;BME280_humidity;BME280_pressure;Samples;Min_cycle;Max_cycle;Signal;HPM_P1;HPM_P2
2023/08/31 00:00:11;;;;;;;8.80;7.40;;;;;;;21.93;73.68;99593.08;83380;294;136612;-65
2023/08/31 00:02:13;;;;;;;8.80;7.40;;;;;;;21.89;73.83;99593.54;83733;292;22681;-70
2023/08/31 00:04:15;;;;;;;12.00;7.40;;;;;;;21.89;73.45;99588.33;84180;282;136876;-67
2023/08/31 00:06:17;;;;;;;9.40;7.30;;;;;;;21.87;73.12;99590.73;84120;282;22548;-69
2023/08/31 00:08:22;;;;;;;7.50;6.80;;;;;;;21.86;73.25;99589.12;83719;282;524746;-69
2023/08/31 00:10:24;;;;;;;16.80;8.50;;;;;;;21.87;72.53;99588.67;84348;281;22683;-66
2023/08/31 00:12:26;;;;;;;10.80;7.20;;;;;;;21.85;72.35;99588.36;84124;281;137390;-68
2023/08/31 00:14:29;;;;;;;10.70;7.20;;;;;;;21.83;72.59;99590.00;84552;281;25234;-67
2023/08/31 00:16:31;;;;;;;9.30;7.70;;;;;;;21.79;72.00;99590.19;84406;280;136246;-65
2023/08/31 00:18:32;;;;;;;10.30;8.00;;;;;;;21.80;71.48;99592.63;84402;281;24183;-66
2023/08/31 00:20:34;;;;;;;10.00;9.00;;;;;;;21.79;71.29;99591.00;84311;280;135982;-66
2023/08/31 00:22:37;;;;;;;9.40;8.20;;;;;;;21.74;71.72;99591.46;84378;280;25150;-68
2023/08/31 00:24:39;;;;;;;9.80;8.70;;;;;;;21.76;71.40;99596.23;84090;280;138419;-66
2023/08/31 00:26:42;;;;;;;11.60;8.40;;;;;;;21.72;71.93;99591.91;84227;281;22834;-68
2023/08/31 00:28:45;;;;;;;11.60;8.40;;;;;;;21.71;72.08;99591.48;84382;281;138999;-64
2023/08/31 00:30:48;;;;;;;12.50;9.20;;;;;;;21.70;72.38;99589.16;84443;274;25265;-67
2023/08/31 00:32:53;;;;;;;10.30;8.90;;;;;;;21.66;71.99;99588.69;84433;281;136865;-67
2023/08/31 00:34:55;;;;;;;;;;;;;;;21.63;71.79;99591.73;84508;281;25281;-68
2023/08/31 00:36:58;;;;;;;12.50;9.40;;;;;;;21.59;71.64;99589.81;84180;281;122363;-68
2023/08/31 00:39:10;;;;;;;14.10;10.70;;;;;;;21.54;71.68;99588.32;84230;281;22745;-66
2023/08/31 00:41:16;;;;;;;14.70;9.40;;;;;;;21.58;71.34;99587.00;84238;281;137304;-68
2023/08/31 00:43:18;;;;;;;15.00;10.10;;;;;;;21.52;70.96;99587.02;84464;280;23605;-69
2023/08/31 00:45:22;;;;;;;17.60;10.80;;;;;;;21.53;70.96;99583.94;84198;282;137730;-70
2023/08/31 00:47:24;;;;;;;10.60;9.40;;;;;;;21.52;70.99;99578.30;84295;282;24331;-68
2023/08/31 00:49:27;;;;;;;14.70;10.00;;;;;;;21.52;71.08;99581.66;84337;281;136066;-69
2023/08/31 00:51:30;;;;;;;14.30;10.00;;;;;;;21.54;70.57;99581.16;84376;281;22656;-69
2023/08/31 00:53:33;;;;;;;11.90;10.10;;;;;;;21.50;70.41;99579.95;84352;281;136364;-69
2023/08/31 00:55:35;;;;;;;11.40;10.30;;;;;;;21.49;69.75;99577.95;84198;281;22553;-69
2023/08/31 00:57:37;;;;;;;18.50;10.50;;;;;;;21.46;69.53;99579.69;84261;280;135942;-70
2023/08/31 00:59:39;;;;;;;13.00;10.30;;;;;;;21.43;69.45;99579.68;84268;282;26399;-68
2023/08/31 01:01:48;;;;;;;16.90;10.10;;;;;;;21.39;69.40;99580.13;84094;282;137224;-67
2023/08/31 01:04:03;;;;;;;14.10;11.20;;;;;;;21.37;68.97;99577.48;84487;281;25256;-69
2023/08/31 01:06:31;;;;;;;16.60;10.90;;;;;;;21.34;68.98;99580.58;84416;281;25189;-70
2023/08/31 01:08:50;;;;;;;14.10;9.20;;;;;;;21.34;68.97;99576.14;84556;280;137028;-67
2023/08/31 01:11:05;;;;;;;20.40;10.10;;;;;;;21.33;68.69;99573.27;84488;281;25134;-69
2023/08/31 01:13:21;;;;;;;14.10;10.30;;;;;;;21.31;68.26;99574.58;84192;282;136248;-68
2023/08/31 01:15:26;;;;;;;12.20;9.70;;;;;;;21.29;68.21;99575.34;84323;282;22588;-70
2023/08/31 01:17:30;;;;;;;11.30;9.10;;;;;;;21.28;67.44;99572.80;84334;281;136129;-70
2023/08/31 01:19:44;;;;;;;11.80;10.30;;;;;;;21.31;67.58;99575.89;84443;281;22572;-69
2023/08/31 01:21:49;;;;;;;13.60;9.90;;;;;;;21.29;67.25;99577.02;84336;280;136334;-66
2023/08/31 01:23:55;;;;;;;11.30;8.50;;;;;;;21.25;67.06;99573.47;84421;280;22650;-65
2023/08/31 01:25:58;;;;;;;9.70;8.70;;;;;;;21.26;66.24;99574.11;84185;282;135912;-67
2023/08/31 01:28:00;;;;;;;11.50;8.50;;;;;;;21.33;64.55;99572.94;84495;281;27497;-70
2023/08/31 01:30:04;;;;;;;10.30;8.40;;;;;;;21.38;64.35;99571.84;84542;281;22545;-71
2023/08/31 01:32:07;;;;;;;9.70;8.20;;;;;;;21.35;63.82;99569.79;84231;282;137789;-71
2023/08/31 01:34:11;;;;;;;12.30;8.30;;;;;;;21.34;63.36;99568.60;84464;280;22501;-67
2023/08/31 01:36:23;;;;;;;10.30;7.90;;;;;;;21.35;63.40;99571.57;84277;280;136279;-68
2023/08/31 01:38:30;;;;;;;9.70;8.70;;;;;;;21.37;63.28;99566.75;84318;281;24011;-67
2023/08/31 01:40:40;;;;;;;11.90;8.90;;;;;;;21.36;63.17;99567.17;84183;280;135775;-70
2023/08/31 01:42:43;;;;;;;10.60;7.30;;;;;;;21.34;63.36;99560.59;84375;282;24101;-67
2023/08/31 01:44:48;;;;;;;10.30;7.90;;;;;;;21.33;62.75;99562.80;84398;280;137405;-67
2023/08/31 01:46:54;;;;;;;9.30;8.20;;;;;;;21.31;62.27;99564.93;84459;280;22579;-71
2023/08/31 01:48:57;;;;;;;14.60;7.30;;;;;;;21.31;61.70;99565.36;84301;280;135841;-66
2023/08/31 01:51:00;;;;;;;11.90;7.20;;;;;;;21.31;61.40;99563.59;84248;282;22547;-67
2023/08/31 01:53:01;;;;;;;8.30;6.70;;;;;;;21.31;60.47;99564.44;84122;280;136177;-66
2023/08/31 01:55:05;;;;;;;8.40;6.60;;;;;;;21.33;60.47;99568.27;84188;283;22563;-67
2023/08/31 01:57:07;;;;;;;10.00;6.70;;;;;;;21.32;59.48;99567.80;84194;282;135971;-67
2023/08/31 01:59:18;;;;;;;11.00;6.70;;;;;;;21.35;59.25;99568.11;84451;281;22745;-66
2023/08/31 02:01:20;;;;;;;10.90;6.90;;;;;;;21.38;59.33;99573.02;84258;282;135730;-65
2023/08/31 02:03:22;;;;;;;9.80;6.40;;;;;;;21.39;59.05;99575.62;84338;282;25220;-66
2023/08/31 02:05:24;;;;;;;10.00;7.00;;;;;;;21.39;58.62;99574.81;84181;283;135979;-67
2023/08/31 02:07:28;;;;;;;7.00;6.10;;;;;;;21.39;58.20;99571.02;84244;281;23057;-67
2023/08/31 02:09:30;;;;;;;9.30;6.50;;;;;;;21.39;57.93;99568.64;84038;283;135805;-69
2023/08/31 02:11:35;;;;;;;12.70;6.30;;;;;;;21.41;57.58;99577.79;84331;281;22713;-66
2023/08/31 02:13:37;;;;;;;6.50;5.90;;;;;;;21.40;57.07;99578.22;84236;281;136290;-66
2023/08/31 02:15:39;;;;;;;8.20;5.60;;;;;;;21.39;56.49;99581.20;84486;281;23735;-68
2023/08/31 02:17:43;;;;;;;6.20;5.00;;;;;;;21.39;55.98;99582.57;84290;281;135910;-69
2023/08/31 02:19:45;;;;;;;9.40;5.50;;;;;;;21.38;55.52;99585.28;84481;280;25295;-67
2023/08/31 02:21:47;;;;;;;7.10;5.40;;;;;;;21.40;55.54;99584.02;84280;280;137297;-66
2023/08/31 02:23:49;;;;;;;6.70;5.60;;;;;;;21.42;55.13;99586.61;84313;282;22564;-66
2023/08/31 02:25:52;;;;;;;16.00;6.00;;;;;;;21.43;55.02;99580.27;84220;281;137338;-67
2023/08/31 02:27:54;;;;;;;11.90;6.00;;;;;;;21.41;54.88;99578.59;84472;281;22577;-68
2023/08/31 02:29:56;;;;;;;14.10;5.90;;;;;;;21.43;54.62;99581.27;84467;280;135811;-70
2023/08/31 02:31:58;;;;;;;7.50;5.70;;;;;;;21.45;54.10;99578.76;84603;280;22563;-69
2023/08/31 02:34:00;;;;;;;6.40;5.50;;;;;;;21.43;54.09;99580.43;84352;281;137213;-68
2023/08/31 02:36:02;;;;;;;6.40;5.30;;;;;;;21.44;53.68;99584.73;84195;283;25183;-71
2023/08/31 02:38:05;;;;;;;7.30;5.20;;;;;;;21.46;53.44;99587.98;84823;281;26297;-65
2023/08/31 02:40:08;;;;;;;9.90;4.90;;;;;;;21.47;53.11;99586.79;84918;280;136353;-64
2023/08/31 02:42:10;;;;;;;7.40;5.00;;;;;;;21.50;53.17;99590.79;84942;269;22647;-65
2023/08/31 02:44:12;;;;;;;5.30;4.40;;;;;;;21.51;52.55;99594.36;84774;281;137869;-63
2023/08/31 02:46:14;;;;;;;8.10;4.70;;;;;;;21.57;52.23;99594.92;84525;281;22544;-67
2023/08/31 02:48:18;;;;;;;6.20;5.50;;;;;;;21.61;51.74;99593.28;84263;282;136405;-65
2023/08/31 02:50:20;;;;;;;6.30;4.40;;;;;;;21.63;51.49;99594.73;84287;281;25434;-65
2023/08/31 02:52:22;;;;;;;11.60;5.20;;;;;;;21.64;51.22;99591.14;84288;281;136786;-67
2023/08/31 02:54:24;;;;;;;7.30;5.20;;;;;;;21.66;51.23;99595.73;84192;284;22629;-68
2023/08/31 02:56:26;;;;;;;10.90;4.60;;;;;;;21.69;50.94;99594.32;84233;283;135967;-69
2023/08/31 02:58:28;;;;;;;7.80;4.50;;;;;;;21.73;50.63;99586.81;84501;281;22587;-69
2023/08/31 03:00:29;;;;;;;9.50;5.00;;;;;;;21.74;50.19;99585.77;84356;281;134889;-71
2023/08/31 03:02:31;;;;;;;5.40;4.10;;;;;;;21.77;50.08;99587.97;84290;283;22558;-71
2023/08/31 03:04:33;;;;;;;8.60;4.00;;;;;;;21.77;49.63;99587.59;84359;281;136100;-70
2023/08/31 03:06:36;;;;;;;7.00;3.70;;;;;;;21.80;49.39;99587.15;84380;281;23359;-69
2023/08/31 03:08:38;;;;;;;5.40;4.20;;;;;;;21.82;49.21;99588.65;84003;283;136984;-67
2023/08/31 03:10:40;;;;;;;8.10;4.60;;;;;;;21.82;49.07;99588.91;84098;276;22549;-68
2023/08/31 03:12:43;;;;;;;4.20;3.80;;;;;;;21.82;49.06;99593.27;84453;281;136109;-66
2023/08/31 03:14:45;;;;;;;7.20;3.90;;;;;;;21.81;48.73;99592.62;84492;281;22553;-67
2023/08/31 03:16:52;;;;;;;12.40;5.10;;;;;;;21.81;48.63;99597.98;84293;283;136056;-67
2023/08/31 03:18:53;;;;;;;6.80;4.50;;;;;;;21.80;48.76;99592.84;84386;281;24223;-64
2023/08/31 03:20:56;;;;;;;17.70;4.10;;;;;;;21.80;48.63;99596.85;84353;281;137100;-67
2023/08/31 03:22:58;;;;;;;5.80;3.80;;;;;;;21.81;48.59;99593.16;84286;281;24767;-65
2023/08/31 03:25:00;;;;;;;6.00;3.70;;;;;;;21.80;48.77;99591.80;84044;282;136289;-65
2023/08/31 03:27:03;;;;;;;12.80;3.90;;;;;;;21.80;48.55;99588.82;84244;282;24139;-62
2023/08/31 03:29:05;;;;;;;12.80;4.00;;;;;;;21.83;48.53;99585.83;84655;281;138043;-61
2023/08/31 03:31:07;;;;;;;6.30;4.10;;;;;;;21.87;48.12;99581.50;84326;282;22710;-67
2023/08/31 03:33:09;;;;;;;5.80;4.00;;;;;;;21.88;47.67;99582.47;84089;284;136238;-65
2023/08/31 03:35:11;;;;;;;4.40;3.30;;;;;;;21.90;47.76;99584.30;84284;282;22554;-68
2023/08/31 03:37:13;;;;;;;14.10;3.50;;;;;;;21.93;47.70;99585.33;84416;280;136367;-64
2023/08/31 03:39:16;;;;;;;9.40;4.20;;;;;;;22.00;47.60;99585.98;84242;282;22604;-67
2023/08/31 03:41:17;;;;;;;5.80;3.60;;;;;;;22.08;47.12;99585.48;84131;282;137680;-68
2023/08/31 03:43:19;;;;;;;5.80;3.10;;;;;;;22.15;47.22;99586.41;84291;283;22576;-67
2023/08/31 03:45:21;;;;;;;8.40;3.80;;;;;;;22.22;46.86;99582.09;83998;284;136084;-66
2023/08/31 03:47:24;;;;;;;11.70;4.20;;;;;;;22.32;46.24;99585.54;84335;281;22584;-68
2023/08/31 03:49:26;;;;;;;8.50;3.40;;;;;;;22.42;45.90;99583.88;84569;280;136523;-66
2023/08/31 03:51:29;;;;;;;7.50;3.40;;;;;;;22.47;45.56;99573.07;84219;280;24114;-67
2023/08/31 03:53:30;;;;;;;6.90;3.40;;;;;;;22.67;45.22;99582.99;84035;282;136394;-69
2023/08/31 03:55:36;;;;;;;9.80;3.60;;;;;;;22.83;45.13;99581.40;84423;281;22546;-69
2023/08/31 03:57:38;;;;;;;6.50;3.90;;;;;;;22.99;44.71;99583.42;84260;282;137010;-71
2023/08/31 03:59:48;;;;;;;11.20;4.60;;;;;;;23.22;44.43;99583.50;84425;281;23395;-67
2023/08/31 04:01:51;;;;;;;9.50;4.00;;;;;;;23.40;43.64;99586.05;84234;281;136339;-67
2023/08/31 04:03:52;;;;;;;7.40;3.40;;;;;;;23.54;43.40;99590.76;84216;283;24037;-67
2023/08/31 04:05:55;;;;;;;6.40;3.10;;;;;;;23.66;42.95;99592.27;84266;281;135931;-69
2023/08/31 04:07:57;;;;;;;3.90;3.20;;;;;;;23.74;42.83;99592.06;84351;281;22840;-66
2023/08/31 04:09:59;;;;;;;11.20;3.40;;;;;;;23.77;42.68;99590.48;84215;281;137444;-67
2023/08/31 04:12:02;;;;;;;11.30;3.50;;;;;;;23.67;42.62;99590.46;84204;283;22629;-65
2023/08/31 04:14:05;;;;;;;7.80;3.10;;;;;;;23.50;42.86;99589.48;84238;283;22580;-66
2023/08/31 04:16:07;;;;;;;8.90;3.20;;;;;;;23.29;43.18;99590.48;84049;281;136524;-69
2023/08/31 04:18:09;;;;;;;5.60;3.10;;;;;;;23.09;43.68;99589.63;84103;283;27369;-66
2023/08/31 04:20:12;;;;;;;15.60;2.70;;;;;;;22.94;44.17;99589.88;84339;281;136146;-67
2023/08/31 04:22:17;;;;;;;6.20;3.60;;;;;;;22.82;44.20;99590.67;84320;280;22547;-68
2023/08/31 04:24:18;;;;;;;5.00;2.60;;;;;;;22.69;44.38;99592.91;84156;269;137772;-70
2023/08/31 04:26:20;;;;;;;5.40;2.60;;;;;;;22.60;44.83;99589.64;84188;281;25131;-69
2023/08/31 04:28:22;;;;;;;8.80;3.40;;;;;;;22.53;45.15;99596.38;84144;281;136465;-67
2023/08/31 04:30:23;;;;;;;6.00;3.40;;;;;;;22.47;45.16;99600.17;84236;281;25148;-68
2023/08/31 04:32:25;;;;;;;7.50;2.90;;;;;;;22.39;45.36;99598.03;84242;281;135090;-67
2023/08/31 04:34:27;;;;;;;8.10;3.40;;;;;;;22.34;45.59;99601.44;84294;281;23536;-66
2023/08/31 04:36:29;;;;;;;7.00;3.50;;;;;;;22.32;45.75;99604.16;84090;281;136260;-68
2023/08/31 04:38:32;;;;;;;11.20;3.40;;;;;;;22.33;45.93;99605.46;84217;281;22551;-69
2023/08/31 04:40:34;;;;;;;5.60;2.80;;;;;;;22.36;45.64;99604.95;84641;281;136907;-69
2023/08/31 04:42:36;;;;;;;10.70;3.10;;;;;;;22.45;45.70;99603.56;84283;282;22826;-68
2023/08/31 04:44:38;;;;;;;11.90;2.90;;;;;;;22.70;45.15;99601.80;84187;281;136545;-68
2023/08/31 04:46:41;;;;;;;4.10;2.40;;;;;;;23.12;44.38;99606.11;84262;281;22549;-69
2023/08/31 04:48:43;;;;;;;6.50;3.10;;;;;;;23.66;43.30;99605.49;84334;280;137422;-68
2023/08/31 04:50:44;;;;;;;7.30;2.90;;;;;;;24.16;42.18;99608.11;84295;280;24101;-70
2023/08/31 04:52:46;;;;;;;9.60;2.60;;;;;;;24.50;41.50;99609.13;84608;280;137049;-65
2023/08/31 04:54:48;;;;;;;3.30;2.10;;;;;;;24.78;40.88;99604.84;84674;281;22559;-66
2023/08/31 04:56:50;;;;;;;8.10;2.80;;;;;;;25.07;40.72;99605.17;84839;280;136338;-64
2023/08/31 04:58:52;;;;;;;9.70;3.30;;;;;;;25.45;39.77;99609.79;84606;280;23587;-65
2023/08/31 05:00:54;;;;;;;14.70;3.60;;;;;;;25.80;38.61;99609.98;84211;280;137052;-67
2023/08/31 05:02:57;;;;;;;3.60;2.40;;;;;;;25.96;38.06;99614.52;84276;283;26219;-68
2023/08/31 05:04:59;;;;;;;8.30;2.00;;;;;;;26.04;37.97;99611.77;84244;282;135974;-65
2023/08/31 05:07:00;;;;;;;4.20;2.40;;;;;;;26.12;37.55;99611.25;84264;282;22548;-66
2023/08/31 05:09:03;;;;;;;6.00;2.20;;;;;;;26.16;37.54;99609.13;84345;281;136237;-63
2023/08/31 05:11:05;;;;;;;6.00;3.30;;;;;;;26.11;37.44;99611.02;84337;281;22570;-68
2023/08/31 05:13:06;;;;;;;4.50;2.30;;;;;;;26.17;37.80;99612.92;84488;281;136262;-73
2023/08/31 05:15:09;;;;;;;5.30;2.40;;;;;;;26.41;37.64;99619.62;84282;282;24098;-72
2023/08/31 05:17:11;;;;;;;5.80;1.90;;;;;;;26.83;37.50;99621.41;84299;281;136269;-73
2023/08/31 05:19:13;;;;;;;9.50;2.90;;;;;;;27.36;36.44;99615.84;84732;281;22730;-72
2023/08/31 05:21:14;;;;;;;6.80;3.50;;;;;;;27.91;35.48;99617.61;84203;282;135733;-73
2023/08/31 05:23:17;;;;;;;5.40;3.00;;;;;;;28.26;34.49;99618.70;84470;280;23619;-73
2023/08/31 05:25:19;;;;;;;11.70;2.90;;;;;;;28.45;33.94;99621.48;84121;282;135793;-73
2023/08/31 05:27:21;;;;;;;6.90;2.50;;;;;;;28.53;34.02;99622.10;84303;280;24252;-71
2023/08/31 05:29:22;;;;;;;6.20;3.10;;;;;;;28.43;33.69;99628.73;84307;280;137561;-73
2023/08/31 05:31:24;;;;;;;10.30;2.50;;;;;;;28.24;33.84;99626.21;84133;283;22728;-71
2023/08/31 05:33:28;;;;;;;4.50;2.60;;;;;;;28.19;34.11;99632.94;84147;282;137090;-72
2023/08/31 05:35:30;;;;;;;8.10;2.90;;;;;;;28.18;34.03;99632.84;84370;281;24280;-69
2023/08/31 05:37:34;;;;;;;7.00;3.10;;;;;;;28.30;34.12;99630.54;84147;281;135998;-71
2023/08/31 05:39:36;;;;;;;7.30;2.30;;;;;;;28.35;33.61;99638.33;84201;281;25429;-72
2023/08/31 05:41:41;;;;;;;7.10;4.00;;;;;;;28.09;33.69;99642.60;84239;281;136648;-71
2023/08/31 05:43:43;;;;;;;6.70;2.70;;;;;;;27.72;34.57;99645.29;84502;282;22569;-71
2023/08/31 05:45:46;;;;;;;6.40;2.90;;;;;;;27.42;34.95;99649.11;84242;281;136242;-71
2023/08/31 05:47:48;;;;;;;8.70;3.30;;;;;;;27.25;35.50;99649.66;84358;280;22571;-69
2023/08/31 05:49:51;;;;;;;5.30;2.70;;;;;;;27.16;35.86;99659.02;84226;281;136103;-71
2023/08/31 05:51:54;;;;;;;5.80;2.80;;;;;;;27.23;35.74;99664.10;84312;281;22654;-70
2023/08/31 05:53:56;;;;;;;8.20;3.10;;;;;;;27.40;35.51;99666.28;84254;259;136103;-72
2023/08/31 05:56:03;;;;;;;6.50;3.70;;;;;;;27.69;35.41;99661.64;84310;281;22554;-73
2023/08/31 05:58:06;;;;;;;4.60;3.10;;;;;;;27.98;35.40;99659.33;84246;283;22549;-73
2023/08/31 06:00:09;;;;;;;5.30;3.20;;;;;;;28.14;34.76;99657.55;84276;281;136294;-72
2023/08/31 06:02:15;;;;;;;8.90;3.60;;;;;;;28.16;34.77;99656.07;84313;281;22544;-72
2023/08/31 06:04:17;;;;;;;7.60;2.90;;;;;;;28.04;34.66;99656.36;84375;281;136356;-73
2023/08/31 06:06:20;;;;;;;4.90;2.90;;;;;;;27.83;35.09;99658.84;84428;283;24139;-74
2023/08/31 06:08:22;;;;;;;6.30;3.40;;;;;;;27.55;35.16;99658.62;84515;281;137605;-71
2023/08/31 06:10:24;;;;;;;4.30;3.40;;;;;;;27.29;35.63;99660.14;84421;280;24915;-70
2023/08/31 06:12:26;;;;;;;4.50;2.60;;;;;;;27.08;36.13;99662.23;84015;282;136036;-68
2023/08/31 06:14:29;;;;;;;8.50;3.70;;;;;;;26.89;36.71;99665.77;84164;283;22553;-66
2023/08/31 06:16:30;;;;;;;5.90;2.90;;;;;;;26.80;37.21;99660.86;84969;281;136450;-72
2023/08/31 06:18:33;;;;;;;11.50;3.20;;;;;;;26.91;37.47;99659.80;84342;281;25134;-71
2023/08/31 06:20:35;;;;;;;8.20;2.30;;;;;;;27.11;36.97;99657.52;84271;281;136445;-73
2023/08/31 06:22:37;;;;;;;9.90;2.80;;;;;;;27.16;36.89;99658.79;84619;281;22561;-73
2023/08/31 06:24:38;;;;;;;10.60;3.20;;;;;;;27.19;36.82;99667.98;84580;281;137018;-72
2023/08/31 06:26:40;;;;;;;6.30;2.30;;;;;;;27.21;36.67;99673.06;84650;280;22641;-68
2023/08/31 06:28:42;;;;;;;3.70;2.70;;;;;;;27.14;36.94;99668.36;84247;280;136213;-73
2023/08/31 06:30:46;;;;;;;4.20;2.10;;;;;;;27.07;37.39;99665.28;84373;280;25174;-70
2023/08/31 06:32:50;;;;;;;6.90;2.50;;;;;;;27.05;37.40;99667.81;84401;280;136227;-70
2023/08/31 06:34:52;;;;;;;6.00;2.40;;;;;;;27.02;37.24;99670.09;84353;281;23044;-70
2023/08/31 06:36:57;;;;;;;5.60;2.00;;;;;;;26.78;37.55;99672.02;84312;281;136524;-71
2023/08/31 06:38:59;;;;;;;8.20;2.70;;;;;;;26.38;38.66;99664.42;84294;281;22560;-68
2023/08/31 06:41:02;;;;;;;6.70;2.20;;;;;;;26.10;39.20;99667.94;84278;281;136127;-70
2023/08/31 06:43:05;;;;;;;7.50;2.30;;;;;;;25.98;39.68;99671.05;84399;283;23877;-69
2023/08/31 06:45:08;;;;;;;4.90;1.60;;;;;;;25.99;39.96;99673.50;84264;281;136337;-68
2023/08/31 06:47:11;;;;;;;4.20;1.90;;;;;;;25.90;39.85;99681.17;84271;281;25371;-70
2023/08/31 06:49:13;;;;;;;4.20;2.30;;;;;;;25.71;40.33;99680.71;83919;276;135819;-66
2023/08/31 06:51:15;;;;;;;8.80;2.20;;;;;;;25.55;40.94;99680.67;84359;281;22544;-65
2023/08/31 06:53:17;;;;;;;4.90;2.20;;;;;;;25.40;41.40;99668.04;84568;280;138226;-67
2023/08/31 06:55:19;;;;;;;9.50;3.60;;;;;;;25.38;41.72;99677.40;85370;280;22567;-67
2023/08/31 06:57:25;;;;;;;6.90;2.60;;;;;;;25.39;41.78;99677.11;84225;280;136537;-67
2023/08/31 06:59:27;;;;;;;7.50;2.20;;;;;;;25.43;41.61;99674.58;84336;282;24098;-69
2023/08/31 07:01:35;;;;;;;5.40;2.30;;;;;;;25.51;41.73;99673.34;84253;281;136323;-69
2023/08/31 07:03:38;;;;;;;3.20;1.80;;;;;;;25.58;41.71;99676.46;84270;281;26342;-65
2023/08/31 07:05:45;;;;;;;7.60;2.10;;;;;;;25.62;42.12;99672.63;84393;281;135879;-68
2023/08/31 07:07:47;;;;;;;4.00;2.10;;;;;;;25.64;42.07;99667.88;84164;283;24069;-68
2023/08/31 07:09:49;;;;;;;7.40;2.10;;;;;;;25.78;41.36;99673.53;84216;278;136104;-67
2023/08/31 07:11:52;;;;;;;6.00;3.00;;;;;;;25.83;41.85;99677.05;84046;282;22554;-68
2023/08/31 07:13:53;;;;;;;6.30;3.60;;;;;;;25.92;41.77;99678.39;84071;282;135712;-69
2023/08/31 07:15:55;;;;;;;8.40;3.10;;;;;;;25.95;41.85;99683.23;84261;280;22578;-65
2023/08/31 07:17:59;;;;;;;4.80;2.70;;;;;;;25.95;41.70;99678.98;84248;280;136906;-67
2023/08/31 07:20:00;;;;;;;12.10;3.60;;;;;;;25.99;42.23;99676.97;84146;280;23743;-68
2023/08/31 07:22:04;;;;;;;5.70;2.70;;;;;;;26.12;41.99;99673.58;84115;281;135943;-66
2023/08/31 07:24:06;;;;;;;9.80;2.00;;;;;;;26.20;41.51;99679.66;84176;283;136560;-68
2023/08/31 07:26:08;;;;;;;4.50;2.30;;;;;;;26.18;41.26;99680.95;84173;281;24099;-67
2023/08/31 07:28:10;;;;;;;6.70;2.80;;;;;;;26.06;41.39;99685.84;84163;281;137304;-66
2023/08/31 07:30:12;;;;;;;7.50;2.70;;;;;;;25.94;41.82;99683.85;84333;280;22597;-67
2023/08/31 07:32:14;;;;;;;4.10;2.60;;;;;;;25.78;42.50;99686.80;84235;280;136524;-68
2023/08/31 07:34:16;;;;;;;5.00;2.40;;;;;;;25.71;42.16;99682.97;84496;282;22548;-66
2023/08/31 07:36:18;;;;;;;7.90;3.10;;;;;;;25.70;42.59;99686.48;84082;281;136393;-65
2023/08/31 07:38:20;;;;;;;6.20;2.60;;;;;;;25.75;43.03;99684.13;84637;280;23046;-66
2023/08/31 07:40:22;;;;;;;5.50;3.00;;;;;;;25.84;43.04;99688.14;84392;280;136334;-70
2023/08/31 07:42:25;;;;;;;6.80;2.40;;;;;;;25.91;42.79;99687.84;84110;283;24915;-70
2023/08/31 07:44:28;;;;;;;;;;;;;;;25.90;42.51;99691.09;84514;281;136465;-71
2023/08/31 07:46:30;;;;;;;7.10;2.80;;;;;;;25.81;42.87;99686.31;84192;281;25190;-68
2023/08/31 07:48:32;;;;;;;5.60;2.90;;;;;;;25.77;43.17;99682.62;84198;281;136414;-68
2023/08/31 07:50:36;;;;;;;6.30;2.20;;;;;;;25.72;43.17;99661.94;84149;280;24103;-67
2023/08/31 07:52:38;;;;;;;9.50;3.20;;;;;;;25.90;43.24;99681.70;83962;283;137205;-69
2023/08/31 07:54:40;;;;;;;8.90;3.30;;;;;;;25.95;43.03;99678.00;84603;281;25256;-69
2023/08/31 07:56:42;;;;;;;10.30;4.30;;;;;;;26.03;42.79;99680.45;84072;281;136093;-70
2023/08/31 07:58:44;;;;;;;9.10;5.00;;;;;;;26.07;42.43;99676.27;84187;281;23706;-69
2023/08/31 08:00:48;;;;;;;8.30;3.90;;;;;;;26.09;42.52;99671.02;84151;281;136275;-68
2023/08/31 08:02:51;;;;;;;;;;;;;;;26.16;42.97;99668.51;84494;281;22530;-68
2023/08/31 08:04:53;;;;;;;10.40;4.10;;;;;;;26.21;42.76;99670.69;84449;281;122724;-71
2023/08/31 08:06:55;;;;;;;7.00;3.70;;;;;;;26.27;42.78;99669.36;83664;282;621192;-67
2023/08/31 08:08:56;;;;;;;10.70;2.90;;;;;;;26.35;42.90;99668.88;84037;282;136396;-67
2023/08/31 08:10:59;;;;;;;7.60;2.50;;;;;;;26.47;42.89;99671.17;84267;281;22545;-68
2023/08/31 08:13:06;;;;;;;8.40;2.90;;;;;;;26.53;42.53;99669.74;84308;281;136034;-69
2023/08/31 08:15:09;;;;;;;5.20;2.40;;;;;;;26.60;42.40;99674.73;84676;281;25309;-66
2023/08/31 08:17:10;;;;;;;7.50;2.60;;;;;;;26.67;42.46;99673.76;84119;281;136937;-65
2023/08/31 08:19:12;;;;;;;3.10;2.40;;;;;;;26.75;42.30;99675.15;84190;281;25155;-70
2023/08/31 08:21:16;;;;;;;9.10;2.30;;;;;;;26.85;41.83;99674.79;84236;281;136033;-67
2023/08/31 08:23:19;;;;;;;3.70;2.40;;;;;;;26.93;41.70;99670.04;84227;281;22547;-70
2023/08/31 08:25:23;;;;;;;5.70;2.60;;;;;;;26.99;41.41;99671.35;84119;281;136092;-70
2023/08/31 08:27:27;;;;;;;8.80;2.50;;;;;;;27.05;41.48;99667.33;84445;280;22541;-71
2023/08/31 08:29:29;;;;;;;4.60;2.10;;;;;;;27.10;41.25;99666.90;84110;281;137745;-73
2023/08/31 08:31:31;;;;;;;6.60;1.20;;;;;;;27.19;41.24;99667.87;84310;281;22820;-67
2023/08/31 08:33:33;;;;;;;3.70;1.90;;;;;;;27.27;40.80;99670.82;84167;281;136281;-69
2023/08/31 08:35:37;;;;;;;5.30;1.90;;;;;;;27.30;40.82;99664.30;84271;281;25082;-67
2023/08/31 08:37:40;;;;;;;;;;;;;;;27.30;40.81;99661.40;84568;281;136302;-69
2023/08/31 08:39:42;;;;;;;5.70;1.90;;;;;;;27.33;40.86;99662.14;84595;281;22549;-66
2023/08/31 08:41:48;;;;;;;4.80;2.50;;;;;;;27.38;40.85;99661.28;84171;281;135904;-65
2023/08/31 08:43:52;;;;;;;7.60;2.50;;;;;;;27.43;40.99;99654.14;84762;282;23485;-65
2023/08/31 08:45:58;;;;;;;8.50;2.50;;;;;;;27.41;41.04;99658.58;84163;281;135894;-67
2023/08/31 08:48:01;;;;;;;9.10;1.80;;;;;;;27.44;41.11;99655.50;84223;281;22548;-68
2023/08/31 08:50:07;;;;;;;5.50;1.80;;;;;;;27.49;40.84;99657.34;84641;281;22562;-66
2023/08/31 08:52:10;;;;;;;11.90;1.90;;;;;;;27.55;40.82;99659.10;84246;281;136221;-67
2023/08/31 08:54:11;;;;;;;5.80;2.00;;;;;;;27.60;40.70;99661.52;84388;269;22545;-66
2023/08/31 08:56:14;;;;;;;5.40;2.70;;;;;;;27.58;40.27;99658.40;84127;283;136436;-67
2023/08/31 08:58:15;;;;;;;4.90;1.70;;;;;;;27.51;40.44;99657.73;84171;281;25134;-64
2023/08/31 09:00:17;;;;;;;3.60;1.30;;;;;;;27.47;40.72;99653.48;84258;281;137939;-63
2023/08/31 09:02:19;;;;;;;4.50;1.80;;;;;;;27.41;40.93;99645.33;84281;282;24228;-64
2023/08/31 09:04:21;;;;;;;9.40;1.70;;;;;;;27.50;41.04;99652.30;84146;281;136240;-66
2023/08/31 09:06:23;;;;;;;5.60;1.00;;;;;;;27.55;40.44;99652.86;84342;278;22555;-67
2023/08/31 09:08:29;;;;;;;7.30;1.90;;;;;;;27.58;40.08;99655.58;84279;281;136289;-63
2023/08/31 09:10:39;;;;;;;3.90;1.00;;;;;;;27.56;40.10;99650.22;84498;281;22580;-67
2023/08/31 09:12:41;;;;;;;11.80;1.90;;;;;;;27.52;40.45;99651.02;84343;281;136295;-63
2023/08/31 09:14:43;;;;;;;2.90;1.50;;;;;;;27.56;40.70;99648.90;84299;281;25297;-63
2023/08/31 09:16:47;;;;;;;3.30;1.80;;;;;;;27.59;40.41;99651.38;84257;281;137608;-66
2023/08/31 09:18:49;;;;;;;3.80;1.30;;;;;;;27.59;40.19;99647.80;84457;281;22548;-68
2023/08/31 09:20:53;;;;;;;4.30;1.10;;;;;;;27.59;39.94;99648.91;84106;280;136100;-65
2023/08/31 09:22:56;;;;;;;5.70;1.60;;;;;;;27.56;39.80;99649.55;84373;281;22549;-66
2023/08/31 09:24:57;;;;;;;9.60;1.50;;;;;;;27.57;39.95;99653.42;84192;282;136536;-66
2023/08/31 09:27:00;;;;;;;7.30;0.90;;;;;;;27.62;40.20;99655.07;84222;281;24137;-66
2023/08/31 09:29:06;;;;;;;2.90;1.20;;;;;;;27.70;39.93;99659.97;84365;281;137584;-68
2023/08/31 09:31:08;;;;;;;5.40;1.10;;;;;;;27.79;39.92;99656.45;84311;281;25320;-66
2023/08/31 09:33:16;;;;;;;4.10;0.90;;;;;;;27.89;39.77;99656.89;84109;281;136959;-67
2023/08/31 09:35:18;;;;;;;4.50;1.40;;;;;;;28.01;39.61;99656.42;84224;283;24005;-65
2023/08/31 09:37:23;;;;;;;1.90;0.80;;;;;;;28.11;39.46;99657.10;84187;281;136256;-66
2023/08/31 09:39:35;;;;;;;6.40;1.20;;;;;;;28.16;38.89;99654.04;84353;281;25371;-67
2023/08/31 09:41:54;;;;;;;3.70;1.50;;;;;;;28.18;38.88;99654.73;84288;281;136742;-64